sensor_id;sensor_type;location;lat;lon;timestamp;temperature;humidity
64501;DHT22;50874;24.150;-110.320;2023-05-10T00:00:18;35.10;38.00
64501;DHT22;50874;24.150;-110.320;2023-05-10T00:02:44;35.20;38.10
64501;DHT22;50874;24.150;-110.320;2023-05-10T00:05:11;35.30;38.30
64501;DHT22;50874;24.150;-110.320;2023-05-10T00:07:37;35.60;41.50
64501;DHT22;50874;24.150;-110.320;2023-05-10T00:10:04;35.80;46.70
64501;DHT22;50874;24.150;-110.320;2023-05-10T00:12:31;35.60;46.10
64501;DHT22;50874;24.150;-110.320;2023-05-10T00:14:57;35.70;45.80
64501;DHT22;50874;24.150;-110.320;2023-05-10T00:17:24;35.70;44.50
64501;DHT22;50874;24.150;-110.320;2023-05-10T00:19:50;35.50;45.40
64501;DHT22;50874;24.150;-110.320;2023-05-10T00:22:16;35.50;44.50
64501;DHT22;50874;24.150;-110.320;2023-05-10T00:24:43;35.50;42.50
64501;DHT22;50874;24.150;-110.320;2023-05-10T00:27:09;35.50;41.30
64501;DHT22;50874;24.150;-110.320;2023-05-10T00:29:36;35.40;41.80
64501;DHT22;50874;24.150;-110.320;2023-05-10T00:32:02;35.30;44.30
64501;DHT22;50874;24.150;-110.320;2023-05-10T00:34:29;35.10;43.60
64501;DHT22;50874;24.150;-110.320;2023-05-10T00:36:55;34.90;43.10
64501;DHT22;50874;24.150;-110.320;2023-05-10T00:39:22;34.80;42.50
64501;DHT22;50874;24.150;-110.320;2023-05-10T00:41:48;34.60;42.00
64501;DHT22;50874;24.150;-110.320;2023-05-10T00:44:14;34.30;42.10
64501;DHT22;50874;24.150;-110.320;2023-05-10T00:46:41;34.30;42.30
64501;DHT22;50874;24.150;-110.320;2023-05-10T00:49:08;34.30;43.50
64501;DHT22;50874;24.150;-110.320;2023-05-10T00:51:34;34.40;44.20
64501;DHT22;50874;24.150;-110.320;2023-05-10T00:54:01;34.40;44.60
64501;DHT22;50874;24.150;-110.320;2023-05-10T00:56:28;34.40;44.10
64501;DHT22;50874;24.150;-110.320;2023-05-10T00:58:56;34.30;45.10
64501;DHT22;50874;24.150;-110.320;2023-05-10T01:01:22;34.20;49.70
64501;DHT22;50874;24.150;-110.320;2023-05-10T01:03:49;33.90;50.10
64501;DHT22;50874;24.150;-110.320;2023-05-10T01:06:16;33.60;47.40
64501;DHT22;50874;24.150;-110.320;2023-05-10T01:08:43;33.50;54.30
64501;DHT22;50874;24.150;-110.320;2023-05-10T01:11:09;33.10;56.70
64501;DHT22;50874;24.150;-110.320;2023-05-10T01:13:42;32.70;58.00
64501;DHT22;50874;24.150;-110.320;2023-05-10T01:16:08;32.40;58.80
64501;DHT22;50874;24.150;-110.320;2023-05-10T01:18:41;32.30;59.50
64501;DHT22;50874;24.150;-110.320;2023-05-10T01:21:33;32.00;60.20
64501;DHT22;50874;24.150;-110.320;2023-05-10T01:24:15;31.90;61.20
64501;DHT22;50874;24.150;-110.320;2023-05-10T01:35:26;31.00;64.50
64501;DHT22;50874;24.150;-110.320;2023-05-10T01:38:33;30.80;65.50
64501;DHT22;50874;24.150;-110.320;2023-05-10T01:41:11;30.50;66.00
64501;DHT22;50874;24.150;-110.320;2023-05-10T01:46:39;30.30;67.20
64501;DHT22;50874;24.150;-110.320;2023-05-10T01:49:26;30.10;67.60
64501;DHT22;50874;24.150;-110.320;2023-05-10T01:52:06;30.00;68.10
64501;DHT22;50874;24.150;-110.320;2023-05-10T01:54:36;30.00;68.60
64501;DHT22;50874;24.150;-110.320;2023-05-10T01:57:06;29.80;68.90
64501;DHT22;50874;24.150;-110.320;2023-05-10T01:59:37;29.80;69.20
64501;DHT22;50874;24.150;-110.320;2023-05-10T02:02:07;29.70;69.50
64501;DHT22;50874;24.150;-110.320;2023-05-10T02:04:39;29.60;69.60
64501;DHT22;50874;24.150;-110.320;2023-05-10T02:07:07;29.60;69.90
64501;DHT22;50874;24.150;-110.320;2023-05-10T02:09:35;29.40;70.30
64501;DHT22;50874;24.150;-110.320;2023-05-10T02:12:04;29.30;70.70
64501;DHT22;50874;24.150;-110.320;2023-05-10T02:14:35;29.20;71.00
64501;DHT22;50874;24.150;-110.320;2023-05-10T02:17:05;29.20;71.30
64501;DHT22;50874;24.150;-110.320;2023-05-10T02:19:33;29.10;71.60
64501;DHT22;50874;24.150;-110.320;2023-05-10T02:22:01;29.00;71.90
64501;DHT22;50874;24.150;-110.320;2023-05-10T02:24:28;29.00;72.50
64501;DHT22;50874;24.150;-110.320;2023-05-10T02:26:56;28.90;73.00
64501;DHT22;50874;24.150;-110.320;2023-05-10T02:29:25;28.70;74.10
64501;DHT22;50874;24.150;-110.320;2023-05-10T02:31:54;28.60;75.00
64501;DHT22;50874;24.150;-110.320;2023-05-10T02:34:26;28.60;75.30
64501;DHT22;50874;24.150;-110.320;2023-05-10T02:36:54;28.60;75.80
64501;DHT22;50874;24.150;-110.320;2023-05-10T02:39:22;28.50;76.30
64501;DHT22;50874;24.150;-110.320;2023-05-10T02:41:50;28.30;77.00
64501;DHT22;50874;24.150;-110.320;2023-05-10T02:44:19;28.20;77.70
64501;DHT22;50874;24.150;-110.320;2023-05-10T02:46:46;28.10;78.20
64501;DHT22;50874;24.150;-110.320;2023-05-10T02:49:17;28.00;78.50
64501;DHT22;50874;24.150;-110.320;2023-05-10T02:51:50;27.90;78.60
64501;DHT22;50874;24.150;-110.320;2023-05-10T02:54:22;27.80;78.80
64501;DHT22;50874;24.150;-110.320;2023-05-10T02:57:14;27.70;79.40
64501;DHT22;50874;24.150;-110.320;2023-05-10T02:59:41;27.70;79.80
64501;DHT22;50874;24.150;-110.320;2023-05-10T03:02:12;27.60;80.20
64501;DHT22;50874;24.150;-110.320;2023-05-10T03:04:39;27.50;81.10
64501;DHT22;50874;24.150;-110.320;2023-05-10T03:07:06;27.50;80.80
64501;DHT22;50874;24.150;-110.320;2023-05-10T03:09:33;27.40;81.20
64501;DHT22;50874;24.150;-110.320;2023-05-10T03:15:18;27.20;82.20
64501;DHT22;50874;24.150;-110.320;2023-05-10T03:20:30;27.10;83.30
64501;DHT22;50874;24.150;-110.320;2023-05-10T03:23:15;27.00;83.50
64501;DHT22;50874;24.150;-110.320;2023-05-10T03:25:46;26.90;84.00
64501;DHT22;50874;24.150;-110.320;2023-05-10T03:28:15;26.90;84.40
64501;DHT22;50874;24.150;-110.320;2023-05-10T03:30:43;26.80;84.90
64501;DHT22;50874;24.150;-110.320;2023-05-10T03:33:10;26.80;85.10
64501;DHT22;50874;24.150;-110.320;2023-05-10T03:35:36;26.70;85.50
64501;DHT22;50874;24.150;-110.320;2023-05-10T03:38:03;26.70;85.90
64501;DHT22;50874;24.150;-110.320;2023-05-10T03:40:29;26.70;86.50
64501;DHT22;50874;24.150;-110.320;2023-05-10T03:42:58;26.50;87.00
64501;DHT22;50874;24.150;-110.320;2023-05-10T03:45:25;26.50;87.40
64501;DHT22;50874;24.150;-110.320;2023-05-10T03:47:52;26.40;88.00
64501;DHT22;50874;24.150;-110.320;2023-05-10T03:50:19;26.40;88.50
64501;DHT22;50874;24.150;-110.320;2023-05-10T03:52:45;26.30;89.30
64501;DHT22;50874;24.150;-110.320;2023-05-10T03:55:12;26.20;89.70
64501;DHT22;50874;24.150;-110.320;2023-05-10T03:57:38;26.10;90.10
64501;DHT22;50874;24.150;-110.320;2023-05-10T04:00:05;26.10;90.40
64501;DHT22;50874;24.150;-110.320;2023-05-10T04:02:32;26.00;90.70
64501;DHT22;50874;24.150;-110.320;2023-05-10T04:04:58;25.90;91.10
64501;DHT22;50874;24.150;-110.320;2023-05-10T04:07:25;25.80;91.40
64501;DHT22;50874;24.150;-110.320;2023-05-10T04:09:51;25.60;91.90
64501;DHT22;50874;24.150;-110.320;2023-05-10T04:12:18;25.50;92.40
64501;DHT22;50874;24.150;-110.320;2023-05-10T04:14:44;25.40;92.80
64501;DHT22;50874;24.150;-110.320;2023-05-10T04:17:11;25.20;93.30
64501;DHT22;50874;24.150;-110.320;2023-05-10T04:19:37;25.20;93.60
64501;DHT22;50874;24.150;-110.320;2023-05-10T04:22:04;25.10;93.80
64501;DHT22;50874;24.150;-110.320;2023-05-10T04:24:30;25.00;94.20
64501;DHT22;50874;24.150;-110.320;2023-05-10T04:26:57;24.80;94.70
64501;DHT22;50874;24.150;-110.320;2023-05-10T04:29:23;24.80;95.00
64501;DHT22;50874;24.150;-110.320;2023-05-10T04:31:50;24.70;95.40
64501;DHT22;50874;24.150;-110.320;2023-05-10T04:34:16;24.50;95.90
64501;DHT22;50874;24.150;-110.320;2023-05-10T04:36:43;24.40;96.50
64501;DHT22;50874;24.150;-110.320;2023-05-10T04:39:09;24.40;96.80
64501;DHT22;50874;24.150;-110.320;2023-05-10T04:41:37;24.30;97.20
64501;DHT22;50874;24.150;-110.320;2023-05-10T04:44:04;24.30;97.60
64501;DHT22;50874;24.150;-110.320;2023-05-10T04:46:31;24.20;98.20
64501;DHT22;50874;24.150;-110.320;2023-05-10T04:48:57;24.10;98.70
64501;DHT22;50874;24.150;-110.320;2023-05-10T04:51:23;24.00;99.40
64501;DHT22;50874;24.150;-110.320;2023-05-10T04:53:50;23.90;99.90
64501;DHT22;50874;24.150;-110.320;2023-05-10T04:56:16;23.80;99.90
64501;DHT22;50874;24.150;-110.320;2023-05-10T04:58:43;23.80;99.90
64501;DHT22;50874;24.150;-110.320;2023-05-10T05:01:09;23.70;99.90
64501;DHT22;50874;24.150;-110.320;2023-05-10T05:03:36;23.70;99.90
64501;DHT22;50874;24.150;-110.320;2023-05-10T05:06:03;23.60;99.90
64501;DHT22;50874;24.150;-110.320;2023-05-10T05:08:30;23.50;99.90
64501;DHT22;50874;24.150;-110.320;2023-05-10T05:10:56;23.30;99.90
64501;DHT22;50874;24.150;-110.320;2023-05-10T05:13:22;23.30;99.90
64501;DHT22;50874;24.150;-110.320;2023-05-10T05:15:49;23.20;99.90
64501;DHT22;50874;24.150;-110.320;2023-05-10T05:18:15;23.20;99.90
64501;DHT22;50874;24.150;-110.320;2023-05-10T05:20:42;23.20;99.90
64501;DHT22;50874;24.150;-110.320;2023-05-10T05:23:08;23.10;99.90
64501;DHT22;50874;24.150;-110.320;2023-05-10T05:25:35;23.10;99.90
64501;DHT22;50874;24.150;-110.320;2023-05-10T05:28:02;23.10;99.90
64501;DHT22;50874;24.150;-110.320;2023-05-10T05:30:28;23.00;99.90
64501;DHT22;50874;24.150;-110.320;2023-05-10T05:32:55;23.00;99.90
64501;DHT22;50874;24.150;-110.320;2023-05-10T05:35:22;23.00;99.90
64501;DHT22;50874;24.150;-110.320;2023-05-10T05:37:48;22.90;99.90
64501;DHT22;50874;24.150;-110.320;2023-05-10T05:40:15;23.00;99.90
64501;DHT22;50874;24.150;-110.320;2023-05-10T05:42:41;22.90;99.90
64501;DHT22;50874;24.150;-110.320;2023-05-10T05:45:08;22.90;99.90
64501;DHT22;50874;24.150;-110.320;2023-05-10T05:47:39;22.90;99.90
64501;DHT22;50874;24.150;-110.320;2023-05-10T05:50:06;22.80;99.90
64501;DHT22;50874;24.150;-110.320;2023-05-10T05:52:32;22.80;99.90
64501;DHT22;50874;24.150;-110.320;2023-05-10T05:54:59;22.80;99.90
64501;DHT22;50874;24.150;-110.320;2023-05-10T05:57:26;22.70;99.90
64501;DHT22;50874;24.150;-110.320;2023-05-10T05:59:52;22.70;99.90
64501;DHT22;50874;24.150;-110.320;2023-05-10T06:02:19;22.60;99.90
64501;DHT22;50874;24.150;-110.320;2023-05-10T06:04:45;22.60;99.90
64501;DHT22;50874;24.150;-110.320;2023-05-10T06:07:12;22.50;99.90
64501;DHT22;50874;24.150;-110.320;2023-05-10T06:09:38;22.40;99.90
64501;DHT22;50874;24.150;-110.320;2023-05-10T06:12:05;22.40;99.90
64501;DHT22;50874;24.150;-110.320;2023-05-10T06:14:31;22.40;99.90
64501;DHT22;50874;24.150;-110.320;2023-05-10T06:16:58;22.30;99.90
64501;DHT22;50874;24.150;-110.320;2023-05-10T06:19:25;22.30;99.90
64501;DHT22;50874;24.150;-110.320;2023-05-10T06:21:52;22.30;99.90
64501;DHT22;50874;24.150;-110.320;2023-05-10T06:24:18;22.20;99.90
64501;DHT22;50874;24.150;-110.320;2023-05-10T06:26:45;22.20;99.90
64501;DHT22;50874;24.150;-110.320;2023-05-10T06:29:11;22.10;99.90
64501;DHT22;50874;24.150;-110.320;2023-05-10T06:31:38;22.10;99.90
64501;DHT22;50874;24.150;-110.320;2023-05-10T06:34:04;22.10;99.90
64501;DHT22;50874;24.150;-110.320;2023-05-10T06:36:30;22.00;99.90
64501;DHT22;50874;24.150;-110.320;2023-05-10T06:38:57;22.00;99.90
64501;DHT22;50874;24.150;-110.320;2023-05-10T06:41:23;21.90;99.90
64501;DHT22;50874;24.150;-110.320;2023-05-10T06:43:50;21.90;99.90
64501;DHT22;50874;24.150;-110.320;2023-05-10T06:46:19;21.80;99.90
64501;DHT22;50874;24.150;-110.320;2023-05-10T06:48:45;21.80;99.90
64501;DHT22;50874;24.150;-110.320;2023-05-10T06:51:12;21.80;99.90
64501;DHT22;50874;24.150;-110.320;2023-05-10T06:53:38;21.80;99.90
64501;DHT22;50874;24.150;-110.320;2023-05-10T06:56:05;21.70;99.90
64501;DHT22;50874;24.150;-110.320;2023-05-10T06:58:31;21.70;99.90
64501;DHT22;50874;24.150;-110.320;2023-05-10T07:01:07;21.70;99.90
64501;DHT22;50874;24.150;-110.320;2023-05-10T07:03:34;21.60;99.90
64501;DHT22;50874;24.150;-110.320;2023-05-10T07:06:01;21.60;99.90
64501;DHT22;50874;24.150;-110.320;2023-05-10T07:08:32;21.60;99.90
64501;DHT22;50874;24.150;-110.320;2023-05-10T07:11:03;21.60;99.90
64501;DHT22;50874;24.150;-110.320;2023-05-10T07:13:31;21.60;99.90
64501;DHT22;50874;24.150;-110.320;2023-05-10T07:15:58;21.70;99.90
64501;DHT22;50874;24.150;-110.320;2023-05-10T07:18:25;21.70;99.90
64501;DHT22;50874;24.150;-110.320;2023-05-10T07:20:52;21.80;99.90
64501;DHT22;50874;24.150;-110.320;2023-05-10T07:23:18;21.80;99.90
64501;DHT22;50874;24.150;-110.320;2023-05-10T07:25:49;21.90;99.90
64501;DHT22;50874;24.150;-110.320;2023-05-10T07:28:17;21.90;99.90
64501;DHT22;50874;24.150;-110.320;2023-05-10T07:30:44;21.90;99.90
64501;DHT22;50874;24.150;-110.320;2023-05-10T07:33:12;21.90;99.90
64501;DHT22;50874;24.150;-110.320;2023-05-10T07:35:38;21.90;99.90
64501;DHT22;50874;24.150;-110.320;2023-05-10T07:38:05;21.90;99.90
64501;DHT22;50874;24.150;-110.320;2023-05-10T07:40:32;21.90;99.90
64501;DHT22;50874;24.150;-110.320;2023-05-10T07:42:58;21.90;99.90
64501;DHT22;50874;24.150;-110.320;2023-05-10T07:45:27;21.90;99.90
64501;DHT22;50874;24.150;-110.320;2023-05-10T07:47:54;21.90;99.90
64501;DHT22;50874;24.150;-110.320;2023-05-10T07:50:21;21.90;99.90
64501;DHT22;50874;24.150;-110.320;2023-05-10T07:52:48;22.00;99.90
64501;DHT22;50874;24.150;-110.320;2023-05-10T07:55:14;22.00;99.90
64501;DHT22;50874;24.150;-110.320;2023-05-10T07:57:42;22.00;99.90
64501;DHT22;50874;24.150;-110.320;2023-05-10T08:00:09;22.00;99.90
64501;DHT22;50874;24.150;-110.320;2023-05-10T08:02:35;22.10;99.90
64501;DHT22;50874;24.150;-110.320;2023-05-10T08:05:02;22.00;99.90
64501;DHT22;50874;24.150;-110.320;2023-05-10T08:07:29;22.10;99.90
64501;DHT22;50874;24.150;-110.320;2023-05-10T08:09:55;22.10;99.90
64501;DHT22;50874;24.150;-110.320;2023-05-10T08:12:22;22.10;99.90
64501;DHT22;50874;24.150;-110.320;2023-05-10T08:14:48;22.10;99.90
64501;DHT22;50874;24.150;-110.320;2023-05-10T08:17:14;22.00;99.90
64501;DHT22;50874;24.150;-110.320;2023-05-10T08:19:41;21.90;99.90
64501;DHT22;50874;24.150;-110.320;2023-05-10T08:22:07;21.80;99.90
64501;DHT22;50874;24.150;-110.320;2023-05-10T08:24:34;21.70;99.90
64501;DHT22;50874;24.150;-110.320;2023-05-10T08:27:05;21.50;99.90
64501;DHT22;50874;24.150;-110.320;2023-05-10T08:29:31;21.40;99.90
64501;DHT22;50874;24.150;-110.320;2023-05-10T08:31:58;21.30;99.90
64501;DHT22;50874;24.150;-110.320;2023-05-10T08:34:24;21.20;99.90
64501;DHT22;50874;24.150;-110.320;2023-05-10T08:36:51;21.10;99.90
64501;DHT22;50874;24.150;-110.320;2023-05-10T08:39:17;21.10;99.90
64501;DHT22;50874;24.150;-110.320;2023-05-10T08:41:45;21.00;99.90
64501;DHT22;50874;24.150;-110.320;2023-05-10T08:44:13;21.00;99.90
64501;DHT22;50874;24.150;-110.320;2023-05-10T08:46:41;21.00;99.90
64501;DHT22;50874;24.150;-110.320;2023-05-10T08:49:13;21.00;99.90
64501;DHT22;50874;24.150;-110.320;2023-05-10T08:51:49;21.00;99.90
64501;DHT22;50874;24.150;-110.320;2023-05-10T08:54:17;21.00;99.90
64501;DHT22;50874;24.150;-110.320;2023-05-10T08:56:43;21.20;99.90
64501;DHT22;50874;24.150;-110.320;2023-05-10T08:59:10;21.20;99.90
64501;DHT22;50874;24.150;-110.320;2023-05-10T09:01:38;21.20;99.90
64501;DHT22;50874;24.150;-110.320;2023-05-10T09:04:05;21.20;99.90
64501;DHT22;50874;24.150;-110.320;2023-05-10T09:06:32;21.20;99.90
64501;DHT22;50874;24.150;-110.320;2023-05-10T09:08:59;21.20;99.90
64501;DHT22;50874;24.150;-110.320;2023-05-10T09:11:26;21.20;99.90
64501;DHT22;50874;24.150;-110.320;2023-05-10T09:13:55;21.20;99.90
64501;DHT22;50874;24.150;-110.320;2023-05-10T09:16:23;21.30;99.80
64501;DHT22;50874;24.150;-110.320;2023-05-10T09:18:49;21.30;99.00
64501;DHT22;50874;24.150;-110.320;2023-05-10T09:21:16;21.40;98.30
64501;DHT22;50874;24.150;-110.320;2023-05-10T09:23:47;21.40;97.30
64501;DHT22;50874;24.150;-110.320;2023-05-10T09:26:15;21.40;96.70
64501;DHT22;50874;24.150;-110.320;2023-05-10T09:28:53;21.50;95.50
64501;DHT22;50874;24.150;-110.320;2023-05-10T09:31:20;21.50;94.70
64501;DHT22;50874;24.150;-110.320;2023-05-10T09:33:48;21.50;94.10
64501;DHT22;50874;24.150;-110.320;2023-05-10T09:36:15;21.50;93.50
64501;DHT22;50874;24.150;-110.320;2023-05-10T09:38:50;21.50;92.90
64501;DHT22;50874;24.150;-110.320;2023-05-10T09:41:22;21.50;92.70
64501;DHT22;50874;24.150;-110.320;2023-05-10T09:43:50;21.50;92.30
64501;DHT22;50874;24.150;-110.320;2023-05-10T09:46:17;21.50;92.10
64501;DHT22;50874;24.150;-110.320;2023-05-10T09:48:47;21.50;92.10
64501;DHT22;50874;24.150;-110.320;2023-05-10T09:51:20;21.40;92.00
64501;DHT22;50874;24.150;-110.320;2023-05-10T09:53:47;21.40;92.00
64501;DHT22;50874;24.150;-110.320;2023-05-10T09:56:35;21.40;92.00
64501;DHT22;50874;24.150;-110.320;2023-05-10T09:59:03;21.30;92.00
64501;DHT22;50874;24.150;-110.320;2023-05-10T10:01:30;21.30;92.00
64501;DHT22;50874;24.150;-110.320;2023-05-10T10:03:57;21.20;92.10
64501;DHT22;50874;24.150;-110.320;2023-05-10T10:06:24;21.20;92.20
64501;DHT22;50874;24.150;-110.320;2023-05-10T10:08:51;21.10;92.20
64501;DHT22;50874;24.150;-110.320;2023-05-10T10:11:19;21.00;92.20
64501;DHT22;50874;24.150;-110.320;2023-05-10T10:13:46;21.00;92.10
64501;DHT22;50874;24.150;-110.320;2023-05-10T10:16:12;20.90;91.80
64501;DHT22;50874;24.150;-110.320;2023-05-10T10:18:39;20.90;91.60
64501;DHT22;50874;24.150;-110.320;2023-05-10T10:21:08;20.90;91.30
64501;DHT22;50874;24.150;-110.320;2023-05-10T10:23:35;20.80;91.20
64501;DHT22;50874;24.150;-110.320;2023-05-10T10:26:05;20.80;91.10
64501;DHT22;50874;24.150;-110.320;2023-05-10T10:28:57;20.70;91.10
64501;DHT22;50874;24.150;-110.320;2023-05-10T10:31:36;20.70;91.20
64501;DHT22;50874;24.150;-110.320;2023-05-10T10:34:16;20.60;91.10
64501;DHT22;50874;24.150;-110.320;2023-05-10T10:36:46;20.60;91.10
64501;DHT22;50874;24.150;-110.320;2023-05-10T10:39:14;20.60;91.10
64501;DHT22;50874;24.150;-110.320;2023-05-10T10:41:52;20.50;91.10
64501;DHT22;50874;24.150;-110.320;2023-05-10T10:44:30;20.50;91.00
64501;DHT22;50874;24.150;-110.320;2023-05-10T10:52:34;20.40;89.90
64501;DHT22;50874;24.150;-110.320;2023-05-10T10:55:07;20.50;89.90
64501;DHT22;50874;24.150;-110.320;2023-05-10T11:00:28;20.40;90.00
64501;DHT22;50874;24.150;-110.320;2023-05-10T11:03:14;20.30;90.00
64501;DHT22;50874;24.150;-110.320;2023-05-10T11:05:49;20.30;89.90
64501;DHT22;50874;24.150;-110.320;2023-05-10T11:08:30;20.20;90.30
64501;DHT22;50874;24.150;-110.320;2023-05-10T11:13:32;20.10;90.20
64501;DHT22;50874;24.150;-110.320;2023-05-10T11:16:09;20.00;89.80
64501;DHT22;50874;24.150;-110.320;2023-05-10T11:18:37;20.00;89.50
64501;DHT22;50874;24.150;-110.320;2023-05-10T11:21:03;19.90;89.40
64501;DHT22;50874;24.150;-110.320;2023-05-10T11:26:14;19.90;87.00
64501;DHT22;50874;24.150;-110.320;2023-05-10T11:28:47;20.00;86.70
64501;DHT22;50874;24.150;-110.320;2023-05-10T11:31:18;20.00;86.80
64501;DHT22;50874;24.150;-110.320;2023-05-10T11:33:55;20.00;86.40
64501;DHT22;50874;24.150;-110.320;2023-05-10T11:36:27;20.10;85.80
64501;DHT22;50874;24.150;-110.320;2023-05-10T11:38:55;20.10;85.90
64501;DHT22;50874;24.150;-110.320;2023-05-10T11:41:23;20.00;85.30
64501;DHT22;50874;24.150;-110.320;2023-05-10T11:43:52;20.10;84.60
64501;DHT22;50874;24.150;-110.320;2023-05-10T11:46:21;20.00;84.40
64501;DHT22;50874;24.150;-110.320;2023-05-10T11:48:54;20.00;83.40
64501;DHT22;50874;24.150;-110.320;2023-05-10T11:51:24;20.00;82.30
64501;DHT22;50874;24.150;-110.320;2023-05-10T11:53:53;20.10;81.10
64501;DHT22;50874;24.150;-110.320;2023-05-10T11:56:20;20.10;80.50
64501;DHT22;50874;24.150;-110.320;2023-05-10T11:58:55;20.20;80.20
64501;DHT22;50874;24.150;-110.320;2023-05-10T12:01:23;20.20;80.40
64501;DHT22;50874;24.150;-110.320;2023-05-10T12:03:51;20.10;80.50
64501;DHT22;50874;24.150;-110.320;2023-05-10T12:06:21;20.10;80.80
64501;DHT22;50874;24.150;-110.320;2023-05-10T12:08:48;20.10;81.00
64501;DHT22;50874;24.150;-110.320;2023-05-10T12:11:19;20.00;81.00
64501;DHT22;50874;24.150;-110.320;2023-05-10T12:13:47;20.00;81.40
64501;DHT22;50874;24.150;-110.320;2023-05-10T12:16:20;19.90;81.40
64501;DHT22;50874;24.150;-110.320;2023-05-10T12:18:56;19.90;81.50
64501;DHT22;50874;24.150;-110.320;2023-05-10T12:21:25;19.80;81.50
64501;DHT22;50874;24.150;-110.320;2023-05-10T12:23:54;19.90;81.50
64501;DHT22;50874;24.150;-110.320;2023-05-10T12:26:24;19.90;81.40
64501;DHT22;50874;24.150;-110.320;2023-05-10T12:28:53;19.80;81.20
64501;DHT22;50874;24.150;-110.320;2023-05-10T12:31:20;19.90;81.30
64501;DHT22;50874;24.150;-110.320;2023-05-10T12:33:47;19.80;80.70
64501;DHT22;50874;24.150;-110.320;2023-05-10T12:36:16;19.80;80.70
64501;DHT22;50874;24.150;-110.320;2023-05-10T12:38:44;19.80;81.10
64501;DHT22;50874;24.150;-110.320;2023-05-10T12:41:15;19.80;81.50
64501;DHT22;50874;24.150;-110.320;2023-05-10T12:43:42;19.80;82.00
64501;DHT22;50874;24.150;-110.320;2023-05-10T12:46:10;19.70;82.20
64501;DHT22;50874;24.150;-110.320;2023-05-10T12:48:38;19.70;82.50
64501;DHT22;50874;24.150;-110.320;2023-05-10T12:51:05;19.60;82.20
64501;DHT22;50874;24.150;-110.320;2023-05-10T12:53:35;19.60;82.40
64501;DHT22;50874;24.150;-110.320;2023-05-10T12:56:02;19.50;81.70
64501;DHT22;50874;24.150;-110.320;2023-05-10T12:58:29;19.50;82.50
64501;DHT22;50874;24.150;-110.320;2023-05-10T13:00:55;19.50;82.20
64501;DHT22;50874;24.150;-110.320;2023-05-10T13:03:22;19.70;82.60
64501;DHT22;50874;24.150;-110.320;2023-05-10T13:05:49;19.80;80.30
64501;DHT22;50874;24.150;-110.320;2023-05-10T13:08:15;20.00;82.60
64501;DHT22;50874;24.150;-110.320;2023-05-10T13:10:42;20.30;83.40
64501;DHT22;50874;24.150;-110.320;2023-05-10T13:13:08;20.90;82.00
64501;DHT22;50874;24.150;-110.320;2023-05-10T13:15:35;21.50;80.70
64501;DHT22;50874;24.150;-110.320;2023-05-10T13:18:02;22.00;79.10
64501;DHT22;50874;24.150;-110.320;2023-05-10T13:20:28;22.40;76.90
64501;DHT22;50874;24.150;-110.320;2023-05-10T13:22:55;22.70;72.80
64501;DHT22;50874;24.150;-110.320;2023-05-10T13:25:21;22.80;69.50
64501;DHT22;50874;24.150;-110.320;2023-05-10T13:27:48;22.80;67.80
64501;DHT22;50874;24.150;-110.320;2023-05-10T13:30:14;23.10;67.10
64501;DHT22;50874;24.150;-110.320;2023-05-10T13:32:40;23.50;67.30
64501;DHT22;50874;24.150;-110.320;2023-05-10T13:35:07;24.00;66.40
64501;DHT22;50874;24.150;-110.320;2023-05-10T13:37:34;24.50;66.20
64501;DHT22;50874;24.150;-110.320;2023-05-10T13:40:03;25.00;65.60
64501;DHT22;50874;24.150;-110.320;2023-05-10T13:42:30;25.40;65.30
64501;DHT22;50874;24.150;-110.320;2023-05-10T13:45:00;25.80;64.60
64501;DHT22;50874;24.150;-110.320;2023-05-10T13:47:28;26.10;58.60
64501;DHT22;50874;24.150;-110.320;2023-05-10T13:49:54;26.50;58.30
64501;DHT22;50874;24.150;-110.320;2023-05-10T13:52:21;26.90;58.00
64501;DHT22;50874;24.150;-110.320;2023-05-10T13:54:47;27.30;57.90
64501;DHT22;50874;24.150;-110.320;2023-05-10T13:57:14;27.70;58.10
64501;DHT22;50874;24.150;-110.320;2023-05-10T13:59:42;28.10;57.60
64501;DHT22;50874;24.150;-110.320;2023-05-10T14:02:09;28.40;57.80
64501;DHT22;50874;24.150;-110.320;2023-05-10T14:04:36;28.70;53.70
64501;DHT22;50874;24.150;-110.320;2023-05-10T14:07:02;28.70;50.80
64501;DHT22;50874;24.150;-110.320;2023-05-10T14:09:29;29.10;50.20
64501;DHT22;50874;24.150;-110.320;2023-05-10T14:11:56;29.20;49.00
64501;DHT22;50874;24.150;-110.320;2023-05-10T14:14:23;29.30;48.80
64501;DHT22;50874;24.150;-110.320;2023-05-10T14:16:49;29.00;48.90
64501;DHT22;50874;24.150;-110.320;2023-05-10T14:19:16;29.00;49.50
64501;DHT22;50874;24.150;-110.320;2023-05-10T14:21:43;29.00;49.50
64501;DHT22;50874;24.150;-110.320;2023-05-10T14:24:10;29.10;50.50
64501;DHT22;50874;24.150;-110.320;2023-05-10T14:26:36;29.50;51.80
64501;DHT22;50874;24.150;-110.320;2023-05-10T14:29:03;29.50;51.60
64501;DHT22;50874;24.150;-110.320;2023-05-10T14:31:29;29.40;51.70
64501;DHT22;50874;24.150;-110.320;2023-05-10T14:33:56;29.60;52.00
64501;DHT22;50874;24.150;-110.320;2023-05-10T14:36:23;29.90;52.40
64501;DHT22;50874;24.150;-110.320;2023-05-10T14:38:50;30.30;52.60
64501;DHT22;50874;24.150;-110.320;2023-05-10T14:41:17;30.40;52.40
64501;DHT22;50874;24.150;-110.320;2023-05-10T14:43:43;30.50;51.90
64501;DHT22;50874;24.150;-110.320;2023-05-10T14:46:10;30.80;51.60
64501;DHT22;50874;24.150;-110.320;2023-05-10T14:48:36;30.90;51.60
64501;DHT22;50874;24.150;-110.320;2023-05-10T14:51:03;31.30;51.70
64501;DHT22;50874;24.150;-110.320;2023-05-10T14:53:29;31.50;50.70
64501;DHT22;50874;24.150;-110.320;2023-05-10T14:55:56;31.70;50.40
64501;DHT22;50874;24.150;-110.320;2023-05-10T14:58:23;31.70;50.10
64501;DHT22;50874;24.150;-110.320;2023-05-10T15:00:49;32.00;50.00
64501;DHT22;50874;24.150;-110.320;2023-05-10T15:03:16;32.20;50.00
64501;DHT22;50874;24.150;-110.320;2023-05-10T15:05:43;32.80;49.30
64501;DHT22;50874;24.150;-110.320;2023-05-10T15:08:09;32.80;48.90
64501;DHT22;50874;24.150;-110.320;2023-05-10T15:10:38;32.90;48.90
64501;DHT22;50874;24.150;-110.320;2023-05-10T15:13:05;33.20;49.00
64501;DHT22;50874;24.150;-110.320;2023-05-10T15:15:32;33.60;48.30
64501;DHT22;50874;24.150;-110.320;2023-05-10T15:17:58;33.80;47.60
64501;DHT22;50874;24.150;-110.320;2023-05-10T15:20:25;34.00;46.70
64501;DHT22;50874;24.150;-110.320;2023-05-10T15:22:51;34.20;46.30
64501;DHT22;50874;24.150;-110.320;2023-05-10T15:25:18;34.50;45.90